Time;durP1;ratioP1;P1;durP2;ratioP2;P2;SDS_P1;SDS_P2;PMS_P1;PMS_P2;Temp;Humidity;BMP_temperature;BMP_pressure;BME280_temperature;BME280_humidity;BME280_pressure;Samples;Min_cycle;Max_cycle;Signal;HPM_P1;HPM_P2
2022/07/09 00:02:22;;;;;;;9.40;2.50;;;;;;;23.02;55.06;101422.09;5080065;28;20185;-59
2022/07/09 00:04:47;;;;;;;7.20;2.50;;;;;;;23.01;54.50;101423.28;5072724;28;20186;-59
2022/07/09 00:07:13;;;;;;;7.30;2.90;;;;;;;23.02;55.38;101422.91;5089355;28;20224;-60
2022/07/09 00:09:38;;;;;;;9.27;3.93;;;;;;;22.95;54.90;101419.91;5090268;28;20208;-60
2022/07/09 00:12:07;;;;;;;5.43;2.63;;;;;;;22.93;54.70;101421.50;5089268;28;20318;-59
2022/07/09 00:14:32;;;;;;;12.07;3.13;;;;;;;22.95;54.89;101428.56;5092483;28;20272;-59
2022/07/09 00:16:58;;;;;;;7.07;2.67;;;;;;;22.96;54.79;101427.34;5092381;28;20471;-59
2022/07/09 00:19:23;;;;;;;10.70;3.00;;;;;;;22.97;54.43;101426.09;5090785;28;20190;-59
2022/07/09 00:21:48;;;;;;;13.00;2.80;;;;;;;22.95;54.58;101419.91;5091016;28;20528;-59
2022/07/09 00:24:14;;;;;;;8.10;2.97;;;;;;;22.95;54.16;101419.06;5092726;28;20186;-59
2022/07/09 00:26:39;;;;;;;5.83;2.80;;;;;;;22.93;54.13;101413.69;5092803;28;20614;-59
2022/07/09 00:29:05;;;;;;;5.33;2.80;;;;;;;22.95;54.07;101411.28;5092567;28;20178;-59
2022/07/09 00:31:30;;;;;;;9.80;2.57;;;;;;;22.96;53.98;101418.69;5091084;28;20221;-59
2022/07/09 00:33:55;;;;;;;9.10;3.60;;;;;;;22.97;53.76;101403.06;5091308;28;20178;-61
2022/07/09 00:36:21;;;;;;;4.53;2.30;;;;;;;22.95;53.76;101399.75;5091509;28;20609;-60
2022/07/09 00:38:46;;;;;;;7.57;2.67;;;;;;;22.96;53.73;101400.56;5091581;28;20166;-59
2022/07/09 00:41:12;;;;;;;7.80;2.47;;;;;;;22.95;54.00;101399.75;5091315;28;20166;-59
2022/07/09 00:43:37;;;;;;;6.50;2.57;;;;;;;22.93;53.41;101405.03;5092353;28;20166;-59
2022/07/09 00:46:02;;;;;;;3.30;1.97;;;;;;;22.94;53.84;101403.00;5093307;28;20519;-59
2022/07/09 00:48:28;;;;;;;5.27;2.40;;;;;;;22.93;53.55;101402.16;5093721;28;20575;-59
2022/07/09 00:50:53;;;;;;;9.60;2.43;;;;;;;22.92;53.54;101396.81;5093435;28;20241;-59
2022/07/09 00:53:22;;;;;;;4.63;2.40;;;;;;;22.90;53.84;101388.56;5091895;28;20193;-59
2022/07/09 00:55:47;;;;;;;9.50;2.33;;;;;;;22.90;53.46;101385.66;5090210;28;20198;-59
2022/07/09 00:58:16;;;;;;;6.30;2.83;;;;;;;22.89;53.40;101386.91;5093197;28;20756;-59
2022/07/09 01:00:41;;;;;;;5.43;2.30;;;;;;;22.91;53.01;101387.31;5091813;28;20664;-59
2022/07/09 01:03:07;;;;;;;12.63;3.00;;;;;;;22.88;53.35;101379.44;5093408;28;20408;-59
2022/07/09 01:05:35;;;;;;;4.00;2.57;;;;;;;22.88;53.25;101378.63;5091811;28;20191;-59
2022/07/09 01:08:05;;;;;;;4.47;2.47;;;;;;;22.87;53.13;101374.91;5092350;28;20293;-59
2022/07/09 01:10:31;;;;;;;5.17;2.13;;;;;;;22.87;53.22;101376.97;5092536;28;20430;-59
2022/07/09 01:12:56;;;;;;;5.77;2.50;;;;;;;22.86;53.06;101373.25;5092547;28;20783;-59
2022/07/09 01:15:22;;;;;;;5.10;2.03;;;;;;;22.86;53.06;101369.53;5092099;28;20409;-59
2022/07/09 01:17:47;;;;;;;3.00;2.03;;;;;;;22.84;52.95;101366.22;5091249;28;20194;-59
2022/07/09 01:20:13;;;;;;;3.80;2.03;;;;;;;22.84;53.32;101372.81;5090858;28;20531;-59
2022/07/09 01:22:40;;;;;;;4.10;2.60;;;;;;;22.86;53.07;101375.28;5090792;28;20175;-59
2022/07/09 01:25:09;;;;;;;3.70;2.17;;;;;;;22.84;53.20;101375.69;5090423;28;20550;-60
2022/07/09 01:27:37;;;;;;;5.97;2.50;;;;;;;22.83;52.88;101371.13;5089208;28;20428;-59
2022/07/09 01:30:03;;;;;;;3.63;2.07;;;;;;;22.84;53.22;101375.69;5090676;28;20767;-59
2022/07/09 01:32:29;;;;;;;6.67;2.40;;;;;;;22.82;53.34;101366.59;5090506;28;20893;-59
2022/07/09 01:34:54;;;;;;;5.50;2.23;;;;;;;22.81;53.06;101364.94;5092829;28;20420;-59
2022/07/09 01:37:20;;;;;;;7.47;2.70;;;;;;;22.79;52.80;101364.50;5092456;28;20202;-59
2022/07/09 01:39:52;;;;;;;4.23;2.10;;;;;;;22.78;52.73;101357.06;5092770;28;20174;-60
2022/07/09 01:42:20;;;;;;;4.60;2.47;;;;;;;22.76;52.41;101359.50;5092514;28;20420;-59
2022/07/09 01:44:46;;;;;;;6.10;2.83;;;;;;;22.75;52.29;101360.72;5092437;28;20425;-60
2022/07/09 01:47:14;;;;;;;4.03;2.10;;;;;;;22.74;52.24;101355.34;5092260;28;20499;-59
2022/07/09 01:49:40;;;;;;;4.23;2.40;;;;;;;22.75;52.43;101357.84;5090378;28;20185;-59
2022/07/09 01:52:05;;;;;;;6.77;2.50;;;;;;;22.76;52.42;101362.38;5086714;28;20795;-59
2022/07/09 01:54:31;;;;;;;4.20;1.90;;;;;;;22.76;52.52;101364.41;5071263;28;20190;-59
2022/07/09 01:56:57;;;;;;;4.30;2.17;;;;;;;22.77;52.55;101360.34;5086946;28;20237;-59
2022/07/09 01:59:22;;;;;;;4.80;2.33;;;;;;;22.75;52.72;101363.59;5091092;28;20166;-59
2022/07/09 02:01:48;;;;;;;4.80;2.30;;;;;;;22.75;52.40;101363.59;5090337;28;20178;-59
2022/07/09 02:04:13;;;;;;;3.97;2.60;;;;;;;22.75;52.85;101359.88;5090216;28;20178;-59
2022/07/09 02:06:38;;;;;;;4.17;2.30;;;;;;;22.76;52.50;101361.53;5090190;28;20194;-59
2022/07/09 02:09:04;;;;;;;7.00;3.13;;;;;;;22.75;52.43;101360.72;5090204;28;20229;-59
2022/07/09 02:11:29;;;;;;;4.30;2.40;;;;;;;22.75;52.51;101357.84;5083075;28;20209;-59
2022/07/09 02:13:55;;;;;;;6.37;2.43;;;;;;;22.76;52.96;101356.63;5087486;28;20626;-59
2022/07/09 02:16:20;;;;;;;5.00;2.93;;;;;;;22.75;52.94;101362.75;5091547;28;20206;-59
2022/07/09 02:18:45;;;;;;;4.97;2.17;;;;;;;22.75;52.77;101354.97;5091614;28;20182;-61
2022/07/09 02:21:11;;;;;;;4.27;2.57;;;;;;;22.75;52.83;101354.97;5074606;28;20182;-60
2022/07/09 02:23:36;;;;;;;4.70;2.20;;;;;;;22.73;52.49;101351.63;5071537;28;20182;-59
2022/07/09 02:26:02;;;;;;;7.93;2.40;;;;;;;22.73;52.50;101345.84;5079792;28;20182;-59
2022/07/09 02:28:28;;;;;;;5.20;2.43;;;;;;;22.73;52.62;101351.63;5091589;28;20243;-59
2022/07/09 02:30:54;;;;;;;5.90;2.73;;;;;;;22.73;52.68;101342.16;5087640;28;20205;-59
2022/07/09 02:33:20;;;;;;;5.80;3.17;;;;;;;22.72;52.47;101346.25;5080164;28;20183;-59
2022/07/09 02:35:45;;;;;;;7.37;3.20;;;;;;;22.70;52.28;101352.41;5071237;28;20465;-59
2022/07/09 02:38:11;;;;;;;5.40;2.60;;;;;;;22.69;52.22;101347.03;5070404;28;20179;-59
2022/07/09 02:40:36;;;;;;;6.00;2.57;;;;;;;22.69;52.28;101349.91;5070539;28;20542;-59
2022/07/09 02:43:01;;;;;;;4.63;2.60;;;;;;;22.69;52.68;101350.75;5069612;28;20174;-59
2022/07/09 02:45:27;;;;;;;6.53;2.57;;;;;;;22.69;52.53;101345.00;5070461;28;20220;-59
2022/07/09 02:47:52;;;;;;;5.13;2.50;;;;;;;22.68;52.72;101343.28;5080894;28;20182;-60
2022/07/09 02:50:18;;;;;;;4.80;2.97;;;;;;;22.68;52.66;101343.28;5070666;28;20167;-59
2022/07/09 02:52:43;;;;;;;5.43;2.63;;;;;;;22.68;52.27;101354.81;5070327;28;20183;-59
2022/07/09 02:55:09;;;;;;;4.07;2.40;;;;;;;22.67;52.24;101353.16;5087765;28;20251;-59
2022/07/09 02:57:34;;;;;;;5.07;2.53;;;;;;;22.68;52.17;101346.19;5091110;28;20251;-59
2022/07/09 03:00:00;;;;;;;5.60;2.77;;;;;;;22.67;51.94;101353.16;5091340;28;20174;-59
2022/07/09 03:02:25;;;;;;;6.57;2.53;;;;;;;22.66;52.40;101351.50;5091031;28;20174;-59
2022/07/09 03:04:51;;;;;;;4.80;2.23;;;;;;;22.66;52.23;101353.53;5090984;28;20189;-59
2022/07/09 03:07:16;;;;;;;6.40;2.90;;;;;;;22.65;52.16;101358.47;5090248;28;20190;-59
2022/07/09 03:09:42;;;;;;;6.43;2.60;;;;;;;22.64;52.11;101353.94;5091569;28;20208;-59
2022/07/09 03:12:08;;;;;;;5.60;2.40;;;;;;;22.64;52.32;101348.19;5090573;28;20193;-59
2022/07/09 03:14:33;;;;;;;3.07;2.30;;;;;;;22.64;52.40;101353.09;5091139;28;20178;-59
2022/07/09 03:16:59;;;;;;;7.73;2.30;;;;;;;22.63;52.47;101352.25;5090898;28;20267;-59
2022/07/09 03:19:24;;;;;;;4.47;2.43;;;;;;;22.63;52.24;101355.13;5088452;28;20178;-59
2022/07/09 03:21:50;;;;;;;6.17;2.57;;;;;;;22.63;51.79;101355.13;5070731;28;20179;-59
2022/07/09 03:24:15;;;;;;;5.33;2.40;;;;;;;22.63;52.15;101365.84;5073053;28;20217;-59
2022/07/09 03:26:40;;;;;;;7.97;2.50;;;;;;;22.62;51.88;101367.88;5090677;28;20185;-59
2022/07/09 03:29:07;;;;;;;4.30;2.80;;;;;;;22.60;51.64;101358.81;5091268;28;20175;-59
2022/07/09 03:31:32;;;;;;;4.93;2.53;;;;;;;22.58;51.76;101364.09;5090395;28;20178;-59
2022/07/09 03:33:58;;;;;;;5.10;2.47;;;;;;;22.58;52.13;101366.97;5090628;28;20562;-59
2022/07/09 03:36:23;;;;;;;5.23;2.70;;;;;;;22.59;51.91;101367.81;5090655;28;20224;-59
2022/07/09 03:38:48;;;;;;;5.70;2.10;;;;;;;22.58;51.65;101363.28;5090863;28;20174;-59
2022/07/09 03:41:14;;;;;;;3.93;2.20;;;;;;;22.58;52.25;101363.28;5090363;28;20710;-59
2022/07/09 03:43:39;;;;;;;4.97;2.40;;;;;;;22.57;51.82;101371.06;5090653;28;20614;-59
2022/07/09 03:46:05;;;;;;;3.80;2.50;;;;;;;22.56;51.71;101363.66;5090246;28;20178;-59
2022/07/09 03:48:30;;;;;;;5.10;2.40;;;;;;;22.57;51.55;101365.31;5091008;28;20186;-59
2022/07/09 03:50:56;;;;;;;13.73;2.43;;;;;;;22.55;51.62;101362.00;5094752;28;20624;-59
2022/07/09 03:53:22;;;;;;;3.30;2.23;;;;;;;22.57;51.57;101373.94;5094593;28;20188;-59
2022/07/09 03:55:47;;;;;;;5.20;2.60;;;;;;;22.56;51.47;101369.41;5094997;28;20210;-59
2022/07/09 03:58:13;;;;;;;6.47;2.77;;;;;;;22.54;52.08;101371.84;5094636;28;20173;-59
2022/07/09 04:00:38;;;;;;;4.87;2.43;;;;;;;22.55;51.71;101372.66;5094705;28;20181;-59
2022/07/09 04:03:03;;;;;;;4.20;2.40;;;;;;;22.54;52.24;101368.97;5094266;28;20178;-59
2022/07/09 04:05:29;;;;;;;4.83;2.57;;;;;;;22.55;51.87;101369.78;5094527;28;20227;-60
2022/07/09 04:07:54;;;;;;;3.90;2.13;;;;;;;22.54;51.61;101368.97;5092736;28;20611;-60
2022/07/09 04:10:20;;;;;;;6.90;2.70;;;;;;;22.54;52.03;101365.25;5093096;28;20171;-59
2022/07/09 04:12:45;;;;;;;5.07;2.23;;;;;;;22.53;52.00;101370.16;5092140;28;20178;-60
2022/07/09 04:15:11;;;;;;;5.00;2.70;;;;;;;22.52;51.58;101368.50;5092723;28;20174;-60
2022/07/09 04:17:36;;;;;;;6.63;2.43;;;;;;;22.52;51.50;101362.75;5092426;28;20201;-60
2022/07/09 04:20:03;;;;;;;4.73;2.47;;;;;;;22.52;51.83;101356.19;5086118;28;20206;-60
2022/07/09 04:22:28;;;;;;;4.70;2.10;;;;;;;22.52;51.55;101367.69;5073969;28;20186;-60
2022/07/09 04:24:53;;;;;;;8.03;2.30;;;;;;;22.51;51.91;101366.84;5074008;28;20791;-60
2022/07/09 04:27:19;;;;;;;5.70;2.40;;;;;;;22.51;51.69;101368.88;5092359;28;20178;-60
2022/07/09 04:29:44;;;;;;;4.33;2.53;;;;;;;22.50;51.97;101365.19;5094056;28;20189;-60
2022/07/09 04:32:10;;;;;;;6.53;2.40;;;;;;;22.50;51.65;101373.81;5093822;28;20174;-60
2022/07/09 04:34:35;;;;;;;9.53;2.33;;;;;;;22.49;51.55;101372.16;5094199;28;20629;-60
2022/07/09 04:37:00;;;;;;;3.30;2.07;;;;;;;22.49;51.59;101372.16;5093878;28;20236;-60
2022/07/09 04:39:27;;;;;;;9.03;2.60;;;;;;;22.49;52.00;101371.31;5093951;28;20179;-60
2022/07/09 04:41:52;;;;;;;3.00;2.10;;;;;;;22.49;51.82;101369.28;5080857;28;20181;-59
2022/07/09 04:44:17;;;;;;;5.07;2.73;;;;;;;22.50;51.39;101365.19;5073571;28;20422;-60
2022/07/09 04:46:43;;;;;;;4.77;2.13;;;;;;;22.52;51.47;101368.50;5082959;28;20193;-60
2022/07/09 04:49:09;;;;;;;4.10;2.43;;;;;;;22.54;51.24;101371.84;5093386;28;20271;-60
2022/07/09 04:51:34;;;;;;;6.87;3.03;;;;;;;22.54;51.53;101374.72;5093843;28;20239;-60
2022/07/09 04:54:00;;;;;;;5.63;2.20;;;;;;;22.56;51.34;101374.31;5093310;28;20186;-60
2022/07/09 04:56:25;;;;;;;4.60;2.20;;;;;;;22.57;51.81;101381.75;5080952;28;20203;-60
2022/07/09 04:58:54;;;;;;;3.70;1.83;;;;;;;22.58;51.77;101378.47;5070158;28;20658;-60
2022/07/09 05:01:20;;;;;;;3.70;2.50;;;;;;;22.61;51.61;101371.13;5069002;28;20194;-59
2022/07/09 05:03:46;;;;;;;5.50;2.80;;;;;;;22.61;51.61;101377.72;5070289;28;20429;-60
2022/07/09 05:06:14;;;;;;;5.07;2.40;;;;;;;22.60;51.81;101375.22;5070119;28;20765;-60
2022/07/09 05:08:39;;;;;;;5.30;2.60;;;;;;;22.59;51.31;101368.66;5069735;28;20476;-60
2022/07/09 05:11:05;;;;;;;4.83;2.30;;;;;;;22.59;51.86;101362.91;5071702;28;20409;-59
2022/07/09 05:13:30;;;;;;;3.90;2.30;;;;;;;22.59;51.79;101368.66;5081803;28;20590;-60
2022/07/09 05:15:55;;;;;;;3.57;2.40;;;;;;;22.59;51.93;101368.66;5092648;28;20559;-60
2022/07/09 05:18:21;;;;;;;4.00;2.60;;;;;;;22.58;51.78;101366.97;5092743;28;20188;-60
2022/07/09 05:20:46;;;;;;;8.00;2.40;;;;;;;22.58;51.47;101369.84;5093193;28;20217;-59
2022/07/09 05:23:12;;;;;;;6.50;2.23;;;;;;;22.59;51.76;101370.69;5093194;28;20178;-60
2022/07/09 05:25:37;;;;;;;4.00;2.50;;;;;;;22.59;51.70;101370.69;5093089;28;20644;-60
2022/07/09 05:28:03;;;;;;;5.40;2.40;;;;;;;22.60;52.08;101369.47;5092814;28;20178;-59
2022/07/09 05:30:28;;;;;;;6.23;2.30;;;;;;;22.61;51.53;101366.22;5092229;28;20215;-60
2022/07/09 05:32:54;;;;;;;4.63;2.50;;;;;;;22.61;51.73;101369.09;5092969;28;20178;-59
2022/07/09 05:35:19;;;;;;;3.77;2.10;;;;;;;22.62;52.05;101367.88;5092416;28;20171;-60
2022/07/09 05:37:44;;;;;;;5.20;2.40;;;;;;;22.61;52.04;101371.97;5082674;28;20211;-59
2022/07/09 05:40:10;;;;;;;6.90;2.93;;;;;;;22.62;51.98;101367.06;5084946;28;20170;-60
2022/07/09 05:42:36;;;;;;;5.57;2.50;;;;;;;22.60;51.93;101366.59;5091126;28;20227;-60
2022/07/09 05:45:01;;;;;;;3.97;2.10;;;;;;;22.60;52.21;101369.47;5092555;28;20783;-60
2022/07/09 05:47:27;;;;;;;3.53;2.23;;;;;;;22.59;52.17;101374.41;5092498;28;20159;-59
2022/07/09 05:49:52;;;;;;;6.87;2.53;;;;;;;22.59;52.74;101362.06;5092694;28;20175;-59
2022/07/09 05:52:18;;;;;;;3.93;2.37;;;;;;;22.58;52.04;101369.03;5092669;28;20539;-60
2022/07/09 05:54:43;;;;;;;8.93;2.70;;;;;;;22.58;52.47;101369.84;5092631;28;20182;-59
2022/07/09 05:57:09;;;;;;;4.53;2.40;;;;;;;22.57;52.20;101368.19;5075015;28;20222;-59
2022/07/09 05:59:34;;;;;;;4.73;2.60;;;;;;;22.56;52.64;101369.41;5071705;28;20194;-59
2022/07/09 06:02:02;;;;;;;4.23;2.67;;;;;;;22.55;52.35;101373.50;5072024;28;20232;-59
2022/07/09 06:04:28;;;;;;;4.83;2.10;;;;;;;22.54;52.39;101374.72;5072015;28;20487;-59
2022/07/09 06:06:53;;;;;;;5.53;2.50;;;;;;;22.54;52.59;101371.84;5071937;28;20449;-59
2022/07/09 06:09:19;;;;;;;5.10;2.20;;;;;;;22.56;52.35;101369.41;5071622;28;20670;-60
2022/07/09 06:11:44;;;;;;;4.53;2.30;;;;;;;22.58;53.02;101360.41;5071177;28;20254;-60
2022/07/09 06:14:10;;;;;;;4.57;2.60;;;;;;;22.60;53.13;101363.72;5087743;28;20170;-59
2022/07/09 06:16:36;;;;;;;15.50;3.20;;;;;;;22.60;53.83;101367.44;5090197;28;20713;-59
2022/07/09 06:19:02;;;;;;;7.07;2.43;;;;;;;22.62;53.02;101367.88;5089983;28;20436;-59
2022/07/09 06:21:28;;;;;;;4.53;2.47;;;;;;;22.64;53.06;101364.63;5070636;28;20421;-60
2022/07/09 06:23:53;;;;;;;5.20;2.40;;;;;;;22.63;53.32;101368.72;5069650;28;20167;-60
2022/07/09 06:26:18;;;;;;;7.77;2.80;;;;;;;22.60;53.17;101357.94;5080017;28;20569;-60
2022/07/09 06:28:44;;;;;;;4.63;2.43;;;;;;;22.59;52.59;101367.81;5088462;28;20182;-59
2022/07/09 06:31:10;;;;;;;5.07;2.90;;;;;;;22.55;53.25;101364.88;5091171;28;20630;-59
2022/07/09 06:33:35;;;;;;;3.90;2.40;;;;;;;22.52;53.23;101365.63;5084906;28;20194;-59
2022/07/09 06:36:00;;;;;;;7.10;2.80;;;;;;;22.47;53.33;101357.31;5071311;28;20613;-59
2022/07/09 06:38:29;;;;;;;4.43;2.60;;;;;;;22.01;54.24;101355.53;5074247;28;20186;-59
2022/07/09 06:40:55;;;;;;;4.80;2.27;;;;;;;22.12;54.15;101356.56;5091581;28;20637;-59
2022/07/09 06:43:21;;;;;;;6.87;2.20;;;;;;;22.22;54.09;101363.78;5091336;28;20489;-59
2022/07/09 06:45:47;;;;;;;6.10;2.63;;;;;;;22.33;53.34;101350.44;5091794;28;20450;-60
2022/07/09 06:48:12;;;;;;;6.90;2.70;;;;;;;22.41;53.07;101360.84;5091331;28;20182;-59
2022/07/09 06:50:38;;;;;;;6.40;2.40;;;;;;;22.46;53.40;101358.53;5091491;28;20182;-59
2022/07/09 06:53:04;;;;;;;7.93;2.77;;;;;;;22.28;54.09;101354.44;5090978;28;20174;-59
2022/07/09 06:55:30;;;;;;;4.27;2.37;;;;;;;22.29;54.04;101355.28;5087514;28;20183;-59
2022/07/09 06:57:57;;;;;;;6.13;2.80;;;;;;;22.12;54.15;101358.63;5071128;28;20213;-59
2022/07/09 07:00:23;;;;;;;10.27;3.10;;;;;;;22.17;54.50;101356.25;5071102;28;20965;-59
2022/07/09 07:02:49;;;;;;;7.47;2.87;;;;;;;22.32;53.39;101352.47;5070958;28;20417;-59
2022/07/09 07:05:14;;;;;;;8.33;3.03;;;;;;;22.27;54.18;101349.06;5070715;28;20417;-60
2022/07/09 07:07:40;;;;;;;7.57;2.60;;;;;;;22.37;53.40;101346.38;5070577;28;20223;-59
2022/07/09 07:10:06;;;;;;;7.57;3.37;;;;;;;22.36;53.95;101347.63;5070674;28;20182;-59
2022/07/09 07:12:31;;;;;;;8.60;2.90;;;;;;;22.35;54.07;101351.72;5089518;28;20189;-59
2022/07/09 07:14:56;;;;;;;6.23;2.73;;;;;;;22.44;53.83;101342.81;5090789;28;20178;-59
2022/07/09 07:17:22;;;;;;;5.83;2.70;;;;;;;22.40;54.31;101354.28;5091002;28;20202;-59
2022/07/09 07:19:47;;;;;;;9.73;3.23;;;;;;;22.34;54.17;101347.16;5090668;28;20183;-59
2022/07/09 07:22:13;;;;;;;7.70;2.90;;;;;;;22.28;55.02;101351.56;5090598;28;20167;-59
2022/07/09 07:24:38;;;;;;;6.57;3.50;;;;;;;22.05;55.95;101353.56;5090246;28;20201;-60
2022/07/09 07:27:04;;;;;;;10.40;3.10;;;;;;;22.13;55.75;101351.66;5088795;28;20184;-59
2022/07/09 07:29:29;;;;;;;8.37;2.60;;;;;;;22.34;54.53;101355.81;5085723;28;20784;-59
2022/07/09 07:31:57;;;;;;;6.10;2.63;;;;;;;22.24;55.50;101347.78;5088210;28;20171;-60
2022/07/09 07:34:24;;;;;;;9.67;2.50;;;;;;;22.37;54.41;101355.03;5087892;28;20178;-59
2022/07/09 07:36:50;;;;;;;4.73;2.70;;;;;;;22.31;54.92;101345.03;5085399;28;20456;-59
2022/07/09 07:39:16;;;;;;;7.80;3.60;;;;;;;22.11;55.66;101349.16;5088021;28;20424;-59
2022/07/09 07:41:41;;;;;;;6.10;2.67;;;;;;;22.32;54.63;101346.69;5086198;28;20729;-60
2022/07/09 07:44:07;;;;;;;14.47;3.30;;;;;;;22.39;54.61;101338.22;5088783;28;20186;-60
2022/07/09 07:46:32;;;;;;;9.20;3.20;;;;;;;22.40;55.04;101342.75;5086159;28;20633;-59
2022/07/09 07:48:58;;;;;;;8.87;3.20;;;;;;;22.45;55.08;101344.50;5068138;28;20248;-60
2022/07/09 07:51:24;;;;;;;6.80;3.40;;;;;;;22.50;55.60;101353.69;5069538;28;20207;-59
2022/07/09 07:53:50;;;;;;;12.07;3.93;;;;;;;22.31;56.54;101350.81;5089249;28;20174;-60
2022/07/09 07:56:15;;;;;;;12.43;3.80;;;;;;;22.33;58.60;101339.72;5088766;28;20467;-60
2022/07/09 07:58:41;;;;;;;12.23;4.27;;;;;;;22.61;58.44;101340.31;5089199;28;20189;-61
2022/07/09 08:01:06;;;;;;;11.43;4.03;;;;;;;22.43;58.26;101341.16;5086260;28;20197;-60
2022/07/09 08:03:31;;;;;;;9.07;3.90;;;;;;;22.68;57.75;101331.78;5087489;28;20170;-60
2022/07/09 08:05:57;;;;;;;8.63;3.40;;;;;;;22.82;58.10;101334.91;5085407;28;20187;-59
2022/07/09 08:08:22;;;;;;;8.50;3.73;;;;;;;22.81;57.76;101327.50;5086762;28;20488;-59
2022/07/09 08:10:48;;;;;;;10.37;4.20;;;;;;;22.77;58.14;101329.47;5087294;28;20231;-59
2022/07/09 08:13:14;;;;;;;10.10;3.10;;;;;;;22.81;57.77;101329.53;5087064;28;20166;-59
2022/07/09 08:15:40;;;;;;;7.20;3.03;;;;;;;22.78;56.96;101330.31;5087449;28;20185;-59
2022/07/09 08:18:06;;;;;;;10.33;3.17;;;;;;;22.67;56.99;101326.44;5087783;28;20919;-59
2022/07/09 08:20:31;;;;;;;10.60;3.80;;;;;;;22.62;58.33;101333.31;5076239;28;20175;-60
2022/07/09 08:22:57;;;;;;;6.47;3.27;;;;;;;22.81;57.42;101335.28;5068657;28;20209;-60
2022/07/09 08:25:22;;;;;;;6.77;2.73;;;;;;;22.84;56.61;101328.78;5080640;28;20672;-60
2022/07/09 08:27:49;;;;;;;6.00;2.40;;;;;;;22.82;56.67;101326.28;5085589;28;20182;-59
2022/07/09 08:30:14;;;;;;;9.27;2.97;;;;;;;22.91;55.16;101323.13;5086209;28;20368;-60
2022/07/09 08:32:40;;;;;;;11.53;3.20;;;;;;;22.93;55.32;101323.59;5088416;28;20773;-60
2022/07/09 08:35:06;;;;;;;7.23;2.77;;;;;;;22.95;55.52;101319.09;5090227;28;20209;-60
2022/07/09 08:37:31;;;;;;;7.23;2.67;;;;;;;23.04;56.15;101313.91;5090387;28;20225;-60
2022/07/09 08:39:57;;;;;;;9.20;3.17;;;;;;;23.09;57.17;101313.53;5089801;28;20416;-61
2022/07/09 08:42:22;;;;;;;5.77;2.83;;;;;;;23.11;56.53;101316.88;5090511;28;20175;-61
2022/07/09 08:44:48;;;;;;;5.63;2.67;;;;;;;23.13;56.21;101308.69;5090558;28;20182;-60
2022/07/09 08:47:16;;;;;;;6.10;2.57;;;;;;;23.19;56.62;101315.78;5089755;28;20558;-60
2022/07/09 08:49:43;;;;;;;11.43;3.10;;;;;;;23.20;56.35;101308.84;5074850;28;20301;-61
2022/07/09 08:52:08;;;;;;;5.73;3.37;;;;;;;23.19;56.40;101312.09;5072172;28;21252;-61
2022/07/09 08:54:37;;;;;;;5.37;2.20;;;;;;;23.16;54.88;101319.44;5088587;28;20417;-60
2022/07/09 08:57:04;;;;;;;7.80;2.10;;;;;;;23.15;54.47;101306.25;5087330;28;20679;-60
2022/07/09 08:59:30;;;;;;;7.50;2.67;;;;;;;23.13;53.95;101305.78;5089400;28;20420;-60
2022/07/09 09:01:56;;;;;;;6.47;2.50;;;;;;;23.19;51.97;101301.38;5089921;28;20458;-60
2022/07/09 09:04:21;;;;;;;7.70;2.57;;;;;;;23.21;52.53;101301.00;5089570;28;20175;-60
2022/07/09 09:06:46;;;;;;;9.53;2.70;;;;;;;23.23;52.48;101289.94;5088881;28;20191;-60
2022/07/09 09:09:18;;;;;;;7.53;2.30;;;;;;;23.18;50.70;101298.91;5090564;28;20210;-61
2022/07/09 09:11:46;;;;;;;5.60;2.37;;;;;;;23.05;52.50;101292.53;5090184;28;20172;-61
2022/07/09 09:14:17;;;;;;;5.30;2.13;;;;;;;23.08;52.05;101293.78;5090483;28;20424;-60
2022/07/09 09:16:43;;;;;;;5.37;2.33;;;;;;;23.15;52.04;101291.84;5087579;28;20452;-60
2022/07/09 09:19:09;;;;;;;6.30;2.50;;;;;;;23.16;52.68;101290.63;5089003;28;20428;-60
2022/07/09 09:21:36;;;;;;;8.67;2.57;;;;;;;23.21;51.72;101287.44;5089204;28;20210;-60
2022/07/09 09:24:03;;;;;;;4.00;2.30;;;;;;;23.14;51.61;101283.59;5087636;28;20186;-60
2022/07/09 09:26:28;;;;;;;5.60;2.00;;;;;;;23.24;50.34;101280.06;5087694;28;20455;-60
2022/07/09 09:29:01;;;;;;;5.03;2.17;;;;;;;23.24;49.61;101280.88;5088802;28;20950;-60
2022/07/09 09:31:27;;;;;;;5.07;2.00;;;;;;;23.23;51.11;101281.28;5090383;28;20205;-61
2022/07/09 09:33:57;;;;;;;5.43;1.87;;;;;;;23.25;50.73;101278.84;5091589;28;20393;-60
2022/07/09 09:36:33;;;;;;;7.03;2.47;;;;;;;23.28;50.68;101269.44;5090966;28;20510;-61
2022/07/09 09:39:22;;;;;;;5.90;2.40;;;;;;;23.22;49.23;101274.69;5087880;28;20428;-60
2022/07/09 09:41:48;;;;;;;6.70;2.00;;;;;;;23.17;50.55;101268.38;5089479;28;20420;-61
2022/07/09 09:44:15;;;;;;;11.63;2.60;;;;;;;23.21;50.54;101273.03;5088567;28;20421;-61
2022/07/09 09:46:41;;;;;;;4.83;2.20;;;;;;;23.32;49.64;101264.53;5070348;28;20405;-60
2022/07/09 09:49:08;;;;;;;14.20;2.70;;;;;;;23.39;49.55;101265.44;5089428;28;20903;-61
2022/07/09 09:51:36;;;;;;;6.40;2.40;;;;;;;23.42;48.39;101263.84;5089507;28;20427;-61
2022/07/09 09:54:02;;;;;;;11.27;2.40;;;;;;;23.35;49.32;101270.38;5090720;28;20439;-60
2022/07/09 09:56:27;;;;;;;6.23;2.60;;;;;;;23.49;47.97;101266.84;5090184;28;20504;-60
2022/07/09 09:58:53;;;;;;;5.33;1.97;;;;;;;23.48;49.13;101262.31;5089965;28;20186;-60
2022/07/09 10:01:18;;;;;;;10.73;2.23;;;;;;;23.43;50.33;101254.81;5072333;28;20174;-60
2022/07/09 10:03:44;;;;;;;7.20;2.30;;;;;;;23.47;49.83;101255.69;5089692;28;20170;-60
2022/07/09 10:06:09;;;;;;;6.90;2.17;;;;;;;23.42;50.08;101252.31;5088807;28;20239;-60
2022/07/09 10:08:34;;;;;;;5.33;2.30;;;;;;;23.37;49.81;101256.38;5088359;28;20283;-60
2022/07/09 10:11:00;;;;;;;7.77;2.50;;;;;;;23.55;49.07;101250.84;5087380;28;20481;-60
2022/07/09 10:13:26;;;;;;;4.70;2.30;;;;;;;23.41;49.07;101257.25;5085669;28;20182;-60
2022/07/09 10:15:54;;;;;;;6.90;1.93;;;;;;;23.49;49.03;101244.59;5087497;28;20173;-60
2022/07/09 10:18:19;;;;;;;6.07;2.10;;;;;;;23.55;48.40;101245.94;5081688;28;20187;-61
2022/07/09 10:20:45;;;;;;;4.67;2.20;;;;;;;23.56;48.46;101247.59;5072322;28;20521;-61
2022/07/09 10:23:21;;;;;;;5.20;1.90;;;;;;;23.59;47.60;101237.31;5069152;28;20182;-61
2022/07/09 10:25:46;;;;;;;6.13;1.70;;;;;;;23.59;48.29;101241.00;5088811;28;20224;-60
2022/07/09 10:28:18;;;;;;;12.87;2.43;;;;;;;23.59;49.58;101235.25;5088502;28;20405;-61
2022/07/09 10:30:44;;;;;;;6.90;2.13;;;;;;;23.60;49.70;101238.97;5087431;28;20178;-61
2022/07/09 10:33:14;;;;;;;3.50;1.63;;;;;;;23.63;48.84;101236.13;5088177;28;20757;-61
2022/07/09 10:35:43;;;;;;;3.80;1.80;;;;;;;23.68;49.22;101238.66;5088727;28;20178;-60
2022/07/09 10:38:09;;;;;;;5.70;2.00;;;;;;;23.60;50.02;101239.81;5088267;28;20467;-60
2022/07/09 10:40:45;;;;;;;6.70;2.00;;;;;;;23.60;49.58;101236.94;5087542;28;20416;-61
2022/07/09 10:43:10;;;;;;;5.00;1.77;;;;;;;23.60;49.29;101236.94;5089818;28;20166;-62
2022/07/09 10:45:37;;;;;;;4.97;2.50;;;;;;;23.57;48.79;101229.06;5088421;28;20425;-62
2022/07/09 10:48:04;;;;;;;8.07;2.00;;;;;;;23.65;47.82;101235.75;5088064;28;20261;-62
2022/07/09 10:50:30;;;;;;;7.67;2.40;;;;;;;23.59;48.60;101234.44;5087623;28;20450;-62
2022/07/09 10:52:56;;;;;;;10.63;2.40;;;;;;;23.63;48.69;101226.66;5088421;28;20419;-62
2022/07/09 10:55:23;;;;;;;5.20;2.20;;;;;;;23.62;48.60;101222.94;5085265;28;20425;-62
2022/07/09 10:57:48;;;;;;;4.00;1.60;;;;;;;23.64;49.00;101217.59;5068371;28;20302;-62
2022/07/09 11:00:21;;;;;;;3.70;1.90;;;;;;;23.65;48.34;101221.31;5070415;28;20931;-62
2022/07/09 11:02:58;;;;;;;8.43;2.07;;;;;;;23.62;49.06;101225.81;5070983;28;20203;-62
2022/07/09 11:05:27;;;;;;;5.33;1.70;;;;;;;23.57;49.21;101216.69;5070752;28;20413;-62
2022/07/09 11:08:05;;;;;;;8.53;2.20;;;;;;;23.71;48.49;101225.50;5070946;28;20484;-62
2022/07/09 11:10:33;;;;;;;4.03;1.53;;;;;;;23.72;48.69;101225.13;5070850;28;20421;-62
2022/07/09 11:12:59;;;;;;;4.77;2.00;;;;;;;23.74;49.28;101218.97;5080708;28;20493;-62
2022/07/09 11:15:28;;;;;;;5.87;2.00;;;;;;;23.73;49.09;101218.13;5079898;28;20425;-62
2022/07/09 11:18:01;;;;;;;4.53;1.80;;;;;;;23.67;50.10;101218.88;5085084;28;20504;-62
2022/07/09 11:20:27;;;;;;;4.60;2.00;;;;;;;23.67;48.80;101219.72;5090039;28;20889;-62